Angers-Loire Airport

Airport
ICAO code: 
LFJR
IATA Code: 
ANE
Summary
ICAO Region: 
EUR
Territory: 
Location: 
Marcé, Pays de la Loire
Serving: 
Angers
Elevation: 
194 ft
Coordinates: 
Aerial View: 
47° 33' 37.08" N, 0° 18' 43.999" W
Metar
Observation
LFJR 041330Z AUTO 28012G23KT 250V330 9999 SCT024 BKN029 BKN037 09/04 Q1008
Station
MARCE
Date/Time
2021-12-04 13:30:00
Wind direction
280°
Wind speed
12 kts
Lowest cloud amount
scattered clouds
Temperature
9°C
Dew point
4°C
Humidity
70%
QNH
1008 hPa
Weather condition
n/a

Runways

Designator Length Width Surface Rops
8/26 1800 45 ASP Yes/Yes
Airport map: 
Aerial View: 

SKYbrary Partners:

Safety knowledge contributed by: